sensor_id;sensor_type;location;lat;lon;timestamp;temperature;humidity
10316;DHT22;5203;48.976;8.306;2022-12-18T00:01:17;-4.90;86.80
10316;DHT22;5203;48.976;8.306;2022-12-18T00:03:43;-4.90;86.70
10316;DHT22;5203;48.976;8.306;2022-12-18T00:06:09;-4.90;86.50
10316;DHT22;5203;48.976;8.306;2022-12-18T00:08:35;-4.90;87.10
10316;DHT22;5203;48.976;8.306;2022-12-18T00:11:09;-5.00;85.70
10316;DHT22;5203;48.976;8.306;2022-12-18T00:13:35;-5.10;87.40
10316;DHT22;5203;48.976;8.306;2022-12-18T00:16:06;-5.10;88.10
10316;DHT22;5203;48.976;8.306;2022-12-18T00:18:32;-5.00;89.00
10316;DHT22;5203;48.976;8.306;2022-12-18T00:20:59;-5.00;88.90
10316;DHT22;5203;48.976;8.306;2022-12-18T00:23:26;-5.00;88.60
10316;DHT22;5203;48.976;8.306;2022-12-18T00:25:52;-5.00;88.30
10316;DHT22;5203;48.976;8.306;2022-12-18T00:28:17;-5.00;88.30
10316;DHT22;5203;48.976;8.306;2022-12-18T00:30:43;-4.90;88.60
10316;DHT22;5203;48.976;8.306;2022-12-18T00:33:09;-4.90;88.30
10316;DHT22;5203;48.976;8.306;2022-12-18T00:35:34;-4.90;87.80
10316;DHT22;5203;48.976;8.306;2022-12-18T00:38:00;-5.00;87.20
10316;DHT22;5203;48.976;8.306;2022-12-18T00:40:25;-5.00;87.30
10316;DHT22;5203;48.976;8.306;2022-12-18T00:42:51;-5.20;87.50
10316;DHT22;5203;48.976;8.306;2022-12-18T00:45:27;-5.30;87.70
10316;DHT22;5203;48.976;8.306;2022-12-18T00:47:53;-5.30;88.30
10316;DHT22;5203;48.976;8.306;2022-12-18T00:50:19;-5.50;88.40
10316;DHT22;5203;48.976;8.306;2022-12-18T00:52:45;-5.60;89.50
10316;DHT22;5203;48.976;8.306;2022-12-18T00:55:11;-5.60;90.10
10316;DHT22;5203;48.976;8.306;2022-12-18T00:57:37;-5.60;91.10
10316;DHT22;5203;48.976;8.306;2022-12-18T01:00:05;-5.50;91.20
10316;DHT22;5203;48.976;8.306;2022-12-18T01:02:31;-5.40;90.90
10316;DHT22;5203;48.976;8.306;2022-12-18T01:04:57;-5.30;90.90
10316;DHT22;5203;48.976;8.306;2022-12-18T01:07:22;-5.20;90.50
10316;DHT22;5203;48.976;8.306;2022-12-18T01:09:48;-5.30;88.80
10316;DHT22;5203;48.976;8.306;2022-12-18T01:12:14;-5.30;89.50
10316;DHT22;5203;48.976;8.306;2022-12-18T01:14:40;-5.20;89.80
10316;DHT22;5203;48.976;8.306;2022-12-18T01:17:05;-5.20;88.40
10316;DHT22;5203;48.976;8.306;2022-12-18T01:19:31;-5.30;87.20
10316;DHT22;5203;48.976;8.306;2022-12-18T01:21:57;-5.40;87.50
10316;DHT22;5203;48.976;8.306;2022-12-18T01:24:23;-5.40;89.40
10316;DHT22;5203;48.976;8.306;2022-12-18T01:26:49;-5.50;88.60
10316;DHT22;5203;48.976;8.306;2022-12-18T01:29:14;-5.60;90.00
10316;DHT22;5203;48.976;8.306;2022-12-18T01:31:40;-5.40;90.90
10316;DHT22;5203;48.976;8.306;2022-12-18T01:34:06;-5.50;89.40
10316;DHT22;5203;48.976;8.306;2022-12-18T01:36:34;-5.50;90.10
10316;DHT22;5203;48.976;8.306;2022-12-18T01:39:04;-5.60;90.60
10316;DHT22;5203;48.976;8.306;2022-12-18T01:41:31;-5.50;91.70
10316;DHT22;5203;48.976;8.306;2022-12-18T01:53:14;-5.50;91.60
10316;DHT22;5203;48.976;8.306;2022-12-18T01:55:44;-5.50;90.50
10316;DHT22;5203;48.976;8.306;2022-12-18T01:58:10;-5.50;90.20
10316;DHT22;5203;48.976;8.306;2022-12-18T02:00:36;-5.50;91.10
10316;DHT22;5203;48.976;8.306;2022-12-18T02:03:02;-5.40;91.60
10316;DHT22;5203;48.976;8.306;2022-12-18T02:08:34;-5.40;90.60
10316;DHT22;5203;48.976;8.306;2022-12-18T02:11:14;-5.40;90.00
10316;DHT22;5203;48.976;8.306;2022-12-18T02:17:06;-5.30;90.50
10316;DHT22;5203;48.976;8.306;2022-12-18T02:23:00;-5.30;89.80
10316;DHT22;5203;48.976;8.306;2022-12-18T02:28:08;-5.30;90.80
10316;DHT22;5203;48.976;8.306;2022-12-18T02:30:38;-5.20;90.20
10316;DHT22;5203;48.976;8.306;2022-12-18T02:33:06;-5.30;89.00
10316;DHT22;5203;48.976;8.306;2022-12-18T02:35:32;-5.30;88.80
10316;DHT22;5203;48.976;8.306;2022-12-18T02:37:59;-5.30;88.90
10316;DHT22;5203;48.976;8.306;2022-12-18T02:40:27;-5.30;88.20
10316;DHT22;5203;48.976;8.306;2022-12-18T02:42:54;-5.30;88.20
10316;DHT22;5203;48.976;8.306;2022-12-18T02:45:19;-5.20;87.60
10316;DHT22;5203;48.976;8.306;2022-12-18T02:47:48;-5.20;85.80
10316;DHT22;5203;48.976;8.306;2022-12-18T02:53:36;-5.20;86.00
10316;DHT22;5203;48.976;8.306;2022-12-18T02:56:07;-5.30;85.70
10316;DHT22;5203;48.976;8.306;2022-12-18T02:59:02;-5.40;86.90
10316;DHT22;5203;48.976;8.306;2022-12-18T03:04:09;-5.20;86.60
10316;DHT22;5203;48.976;8.306;2022-12-18T03:06:40;-5.30;85.60
10316;DHT22;5203;48.976;8.306;2022-12-18T03:09:11;-5.20;85.60
10316;DHT22;5203;48.976;8.306;2022-12-18T03:11:40;-5.30;85.50
10316;DHT22;5203;48.976;8.306;2022-12-18T03:14:27;-5.30;85.30
10316;DHT22;5203;48.976;8.306;2022-12-18T03:16:58;-5.30;85.40
10316;DHT22;5203;48.976;8.306;2022-12-18T03:19:28;-5.30;85.00
10316;DHT22;5203;48.976;8.306;2022-12-18T03:21:56;-5.30;84.10
10316;DHT22;5203;48.976;8.306;2022-12-18T03:24:24;-5.30;82.50
10316;DHT22;5203;48.976;8.306;2022-12-18T03:26:53;-5.40;82.80
10316;DHT22;5203;48.976;8.306;2022-12-18T03:29:40;-5.50;83.80
10316;DHT22;5203;48.976;8.306;2022-12-18T03:32:29;-5.50;83.70
10316;DHT22;5203;48.976;8.306;2022-12-18T03:35:00;-5.50;83.10
10316;DHT22;5203;48.976;8.306;2022-12-18T03:37:27;-5.40;83.70
10316;DHT22;5203;48.976;8.306;2022-12-18T03:39:52;-5.50;83.10
10316;DHT22;5203;48.976;8.306;2022-12-18T03:45:53;-5.50;82.90
10316;DHT22;5203;48.976;8.306;2022-12-18T03:48:16;-5.50;82.90
10316;DHT22;5203;48.976;8.306;2022-12-18T03:50:57;-5.50;82.50
10316;DHT22;5203;48.976;8.306;2022-12-18T03:53:59;-5.50;82.80
10316;DHT22;5203;48.976;8.306;2022-12-18T03:56:28;-5.50;82.70
10316;DHT22;5203;48.976;8.306;2022-12-18T03:58:56;-5.60;80.90
10316;DHT22;5203;48.976;8.306;2022-12-18T04:01:30;-5.80;79.70
10316;DHT22;5203;48.976;8.306;2022-12-18T04:03:59;-5.80;82.80
10316;DHT22;5203;48.976;8.306;2022-12-18T04:06:26;-5.80;84.20
10316;DHT22;5203;48.976;8.306;2022-12-18T04:08:52;-5.80;84.60
10316;DHT22;5203;48.976;8.306;2022-12-18T04:11:18;-5.70;83.90
10316;DHT22;5203;48.976;8.306;2022-12-18T04:13:44;-5.70;84.40
10316;DHT22;5203;48.976;8.306;2022-12-18T04:16:09;-5.70;83.80
10316;DHT22;5203;48.976;8.306;2022-12-18T04:18:36;-5.70;83.00
10316;DHT22;5203;48.976;8.306;2022-12-18T04:21:02;-5.70;82.90
10316;DHT22;5203;48.976;8.306;2022-12-18T04:23:28;-5.70;83.00
10316;DHT22;5203;48.976;8.306;2022-12-18T04:25:54;-5.60;83.20
10316;DHT22;5203;48.976;8.306;2022-12-18T04:28:20;-5.60;83.10
10316;DHT22;5203;48.976;8.306;2022-12-18T04:30:48;-5.60;82.50
10316;DHT22;5203;48.976;8.306;2022-12-18T04:33:16;-5.70;82.50
10316;DHT22;5203;48.976;8.306;2022-12-18T04:35:42;-5.60;82.40
10316;DHT22;5203;48.976;8.306;2022-12-18T04:38:09;-5.70;81.10
10316;DHT22;5203;48.976;8.306;2022-12-18T04:40:38;-5.70;81.50
10316;DHT22;5203;48.976;8.306;2022-12-18T04:43:04;-5.70;82.70
10316;DHT22;5203;48.976;8.306;2022-12-18T04:45:31;-5.60;83.00
10316;DHT22;5203;48.976;8.306;2022-12-18T04:48:00;-5.70;82.30
10316;DHT22;5203;48.976;8.306;2022-12-18T04:50:27;-5.70;83.30
10316;DHT22;5203;48.976;8.306;2022-12-18T04:52:52;-5.70;84.00
10316;DHT22;5203;48.976;8.306;2022-12-18T04:55:18;-5.70;85.00
10316;DHT22;5203;48.976;8.306;2022-12-18T04:57:44;-5.60;85.90
10316;DHT22;5203;48.976;8.306;2022-12-18T05:00:10;-5.50;86.50
10316;DHT22;5203;48.976;8.306;2022-12-18T05:02:36;-5.60;83.80
10316;DHT22;5203;48.976;8.306;2022-12-18T05:05:03;-5.70;83.80
10316;DHT22;5203;48.976;8.306;2022-12-18T05:07:28;-5.70;84.90
10316;DHT22;5203;48.976;8.306;2022-12-18T05:09:54;-5.70;85.60
10316;DHT22;5203;48.976;8.306;2022-12-18T05:12:23;-5.50;86.80
10316;DHT22;5203;48.976;8.306;2022-12-18T05:14:48;-5.50;86.70
10316;DHT22;5203;48.976;8.306;2022-12-18T05:17:14;-5.40;86.50
10316;DHT22;5203;48.976;8.306;2022-12-18T05:19:39;-5.40;86.40
10316;DHT22;5203;48.976;8.306;2022-12-18T05:22:08;-5.40;86.80
10316;DHT22;5203;48.976;8.306;2022-12-18T05:24:34;-5.40;88.40
10316;DHT22;5203;48.976;8.306;2022-12-18T05:27:00;-5.50;88.60
10316;DHT22;5203;48.976;8.306;2022-12-18T05:29:26;-5.40;89.50
10316;DHT22;5203;48.976;8.306;2022-12-18T05:31:51;-5.30;89.90
10316;DHT22;5203;48.976;8.306;2022-12-18T05:34:17;-5.30;90.50
10316;DHT22;5203;48.976;8.306;2022-12-18T05:36:43;-5.40;90.80
10316;DHT22;5203;48.976;8.306;2022-12-18T05:39:08;-5.50;92.80
10316;DHT22;5203;48.976;8.306;2022-12-18T05:41:34;-5.40;92.90
10316;DHT22;5203;48.976;8.306;2022-12-18T05:44:00;-5.50;93.00
10316;DHT22;5203;48.976;8.306;2022-12-18T05:46:26;-5.80;96.30
10316;DHT22;5203;48.976;8.306;2022-12-18T05:48:52;-5.80;97.00
10316;DHT22;5203;48.976;8.306;2022-12-18T05:51:19;-5.70;97.70
10316;DHT22;5203;48.976;8.306;2022-12-18T05:53:46;-5.60;96.80
10316;DHT22;5203;48.976;8.306;2022-12-18T05:56:15;-5.60;96.90
10316;DHT22;5203;48.976;8.306;2022-12-18T05:58:41;-5.70;97.50
10316;DHT22;5203;48.976;8.306;2022-12-18T06:01:15;-5.60;98.40
10316;DHT22;5203;48.976;8.306;2022-12-18T06:03:41;-5.60;98.70
10316;DHT22;5203;48.976;8.306;2022-12-18T06:06:24;-5.60;98.50
10316;DHT22;5203;48.976;8.306;2022-12-18T06:08:51;-5.50;98.10
10316;DHT22;5203;48.976;8.306;2022-12-18T06:11:24;-5.50;97.60
10316;DHT22;5203;48.976;8.306;2022-12-18T06:13:52;-5.50;97.70
10316;DHT22;5203;48.976;8.306;2022-12-18T06:16:18;-5.50;98.10
10316;DHT22;5203;48.976;8.306;2022-12-18T06:18:43;-5.60;97.90
10316;DHT22;5203;48.976;8.306;2022-12-18T06:21:09;-5.70;99.90
10316;DHT22;5203;48.976;8.306;2022-12-18T06:23:35;-5.60;99.70
10316;DHT22;5203;48.976;8.306;2022-12-18T06:26:08;-5.60;99.50
10316;DHT22;5203;48.976;8.306;2022-12-18T06:28:34;-5.70;99.90
10316;DHT22;5203;48.976;8.306;2022-12-18T06:31:00;-5.90;99.90
10316;DHT22;5203;48.976;8.306;2022-12-18T06:33:27;-5.80;99.90
10316;DHT22;5203;48.976;8.306;2022-12-18T06:35:53;-5.90;99.90
10316;DHT22;5203;48.976;8.306;2022-12-18T06:38:19;-5.70;99.90
10316;DHT22;5203;48.976;8.306;2022-12-18T06:40:44;-5.80;99.90
10316;DHT22;5203;48.976;8.306;2022-12-18T06:43:10;-5.90;99.90
10316;DHT22;5203;48.976;8.306;2022-12-18T06:45:36;-5.90;99.90
10316;DHT22;5203;48.976;8.306;2022-12-18T06:48:01;-5.70;99.90
10316;DHT22;5203;48.976;8.306;2022-12-18T06:50:27;-5.50;99.90
10316;DHT22;5203;48.976;8.306;2022-12-18T06:52:53;-5.40;99.90
10316;DHT22;5203;48.976;8.306;2022-12-18T06:55:18;-5.40;99.90
10316;DHT22;5203;48.976;8.306;2022-12-18T06:57:44;-5.50;99.90
10316;DHT22;5203;48.976;8.306;2022-12-18T07:00:10;-5.30;99.90
10316;DHT22;5203;48.976;8.306;2022-12-18T07:02:35;-5.60;99.90
10316;DHT22;5203;48.976;8.306;2022-12-18T07:05:02;-5.80;99.90
10316;DHT22;5203;48.976;8.306;2022-12-18T07:07:27;-5.90;99.90
10316;DHT22;5203;48.976;8.306;2022-12-18T07:09:53;-6.00;99.90
10316;DHT22;5203;48.976;8.306;2022-12-18T07:12:19;-6.00;99.90
10316;DHT22;5203;48.976;8.306;2022-12-18T07:14:44;-6.10;99.90
10316;DHT22;5203;48.976;8.306;2022-12-18T07:17:10;-6.10;99.90
10316;DHT22;5203;48.976;8.306;2022-12-18T07:19:36;-5.90;99.90
10316;DHT22;5203;48.976;8.306;2022-12-18T07:22:01;-6.00;99.90
10316;DHT22;5203;48.976;8.306;2022-12-18T07:24:27;-6.30;99.90
10316;DHT22;5203;48.976;8.306;2022-12-18T07:26:53;-6.30;99.90
10316;DHT22;5203;48.976;8.306;2022-12-18T07:29:19;-6.30;99.90
10316;DHT22;5203;48.976;8.306;2022-12-18T07:31:45;-6.40;99.90
10316;DHT22;5203;48.976;8.306;2022-12-18T07:34:14;-6.20;99.90
10316;DHT22;5203;48.976;8.306;2022-12-18T07:36:40;-6.00;99.90
10316;DHT22;5203;48.976;8.306;2022-12-18T07:39:06;-6.00;99.90
10316;DHT22;5203;48.976;8.306;2022-12-18T07:41:32;-5.90;99.90
10316;DHT22;5203;48.976;8.306;2022-12-18T07:43:58;-5.70;99.90
10316;DHT22;5203;48.976;8.306;2022-12-18T07:46:23;-5.90;99.90
10316;DHT22;5203;48.976;8.306;2022-12-18T07:48:49;-5.80;99.90
10316;DHT22;5203;48.976;8.306;2022-12-18T07:51:15;-5.60;99.90
10316;DHT22;5203;48.976;8.306;2022-12-18T07:53:40;-5.40;99.90
10316;DHT22;5203;48.976;8.306;2022-12-18T07:56:09;-5.30;99.90
10316;DHT22;5203;48.976;8.306;2022-12-18T07:58:36;-5.20;99.90
10316;DHT22;5203;48.976;8.306;2022-12-18T08:01:06;-5.20;99.90
10316;DHT22;5203;48.976;8.306;2022-12-18T08:03:33;-5.40;99.90
10316;DHT22;5203;48.976;8.306;2022-12-18T08:06:03;-5.40;99.90
10316;DHT22;5203;48.976;8.306;2022-12-18T08:08:29;-5.30;99.90
10316;DHT22;5203;48.976;8.306;2022-12-18T08:10:56;-5.10;99.90
10316;DHT22;5203;48.976;8.306;2022-12-18T08:13:23;-5.00;99.90
10316;DHT22;5203;48.976;8.306;2022-12-18T08:16:06;-5.00;99.90
10316;DHT22;5203;48.976;8.306;2022-12-18T08:18:36;-5.00;99.20
10316;DHT22;5203;48.976;8.306;2022-12-18T08:23:37;-5.00;99.90
10316;DHT22;5203;48.976;8.306;2022-12-18T08:26:03;-4.90;99.90
10316;DHT22;5203;48.976;8.306;2022-12-18T08:28:29;-4.70;99.90
10316;DHT22;5203;48.976;8.306;2022-12-18T08:30:55;-4.50;99.20
10316;DHT22;5203;48.976;8.306;2022-12-18T08:33:20;-4.50;98.00
10316;DHT22;5203;48.976;8.306;2022-12-18T08:35:46;-4.50;97.20
10316;DHT22;5203;48.976;8.306;2022-12-18T08:38:12;-4.50;95.80
10316;DHT22;5203;48.976;8.306;2022-12-18T08:40:37;-4.80;98.10
10316;DHT22;5203;48.976;8.306;2022-12-18T08:43:03;-4.80;99.80
10316;DHT22;5203;48.976;8.306;2022-12-18T08:45:47;-4.60;98.30
10316;DHT22;5203;48.976;8.306;2022-12-18T08:48:13;-4.50;98.70
10316;DHT22;5203;48.976;8.306;2022-12-18T08:50:38;-4.70;96.90
10316;DHT22;5203;48.976;8.306;2022-12-18T08:53:04;-4.90;99.40
10316;DHT22;5203;48.976;8.306;2022-12-18T08:55:30;-4.80;99.40
10316;DHT22;5203;48.976;8.306;2022-12-18T08:57:55;-4.80;98.00
10316;DHT22;5203;48.976;8.306;2022-12-18T09:00:21;-4.80;98.50
10316;DHT22;5203;48.976;8.306;2022-12-18T09:02:47;-5.30;99.90
10316;DHT22;5203;48.976;8.306;2022-12-18T09:05:12;-5.40;99.90
10316;DHT22;5203;48.976;8.306;2022-12-18T09:07:38;-5.30;99.90
10316;DHT22;5203;48.976;8.306;2022-12-18T09:10:04;-5.50;99.90
10316;DHT22;5203;48.976;8.306;2022-12-18T09:12:30;-5.70;99.90
10316;DHT22;5203;48.976;8.306;2022-12-18T09:14:57;-5.50;99.90
10316;DHT22;5203;48.976;8.306;2022-12-18T09:17:22;-5.50;99.90
10316;DHT22;5203;48.976;8.306;2022-12-18T09:19:48;-5.50;99.90
10316;DHT22;5203;48.976;8.306;2022-12-18T09:22:13;-5.30;99.90
10316;DHT22;5203;48.976;8.306;2022-12-18T09:24:39;-5.10;99.90
10316;DHT22;5203;48.976;8.306;2022-12-18T09:27:05;-5.30;99.90
10316;DHT22;5203;48.976;8.306;2022-12-18T09:29:30;-5.20;99.90
10316;DHT22;5203;48.976;8.306;2022-12-18T09:31:57;-5.00;99.90
10316;DHT22;5203;48.976;8.306;2022-12-18T09:34:22;-4.90;99.90
10316;DHT22;5203;48.976;8.306;2022-12-18T09:36:49;-4.70;99.50
10316;DHT22;5203;48.976;8.306;2022-12-18T09:39:15;-4.70;99.30
10316;DHT22;5203;48.976;8.306;2022-12-18T09:41:50;-4.60;99.00
10316;DHT22;5203;48.976;8.306;2022-12-18T09:49:42;-4.40;97.70
10316;DHT22;5203;48.976;8.306;2022-12-18T09:52:28;-4.40;97.50
10316;DHT22;5203;48.976;8.306;2022-12-18T09:55:09;-4.40;97.80
10316;DHT22;5203;48.976;8.306;2022-12-18T09:57:42;-4.70;97.70
10316;DHT22;5203;48.976;8.306;2022-12-18T10:00:20;-4.80;98.30
10316;DHT22;5203;48.976;8.306;2022-12-18T10:02:46;-4.90;99.70
10316;DHT22;5203;48.976;8.306;2022-12-18T10:08:05;-5.40;99.90
10316;DHT22;5203;48.976;8.306;2022-12-18T10:10:54;-5.60;99.90
10316;DHT22;5203;48.976;8.306;2022-12-18T10:13:34;-5.30;99.90
10316;DHT22;5203;48.976;8.306;2022-12-18T10:21:45;-5.70;99.90
10316;DHT22;5203;48.976;8.306;2022-12-18T10:24:29;-5.70;99.90
10316;DHT22;5203;48.976;8.306;2022-12-18T10:27:10;-5.50;99.90
10316;DHT22;5203;48.976;8.306;2022-12-18T10:29:37;-5.40;99.90
10316;DHT22;5203;48.976;8.306;2022-12-18T10:32:03;-5.50;99.90
10316;DHT22;5203;48.976;8.306;2022-12-18T10:34:29;-5.60;99.90
10316;DHT22;5203;48.976;8.306;2022-12-18T10:36:54;-5.50;99.90
10316;DHT22;5203;48.976;8.306;2022-12-18T10:39:22;-5.40;99.90
10316;DHT22;5203;48.976;8.306;2022-12-18T10:41:52;-5.40;99.90
10316;DHT22;5203;48.976;8.306;2022-12-18T10:44:34;-5.00;99.90
10316;DHT22;5203;48.976;8.306;2022-12-18T10:47:04;-4.80;99.90
10316;DHT22;5203;48.976;8.306;2022-12-18T10:49:33;-4.60;99.90
10316;DHT22;5203;48.976;8.306;2022-12-18T10:52:21;-4.80;99.90
10316;DHT22;5203;48.976;8.306;2022-12-18T10:55:12;-4.70;99.90
10316;DHT22;5203;48.976;8.306;2022-12-18T10:57:41;-4.40;99.60
10316;DHT22;5203;48.976;8.306;2022-12-18T11:00:27;-4.30;98.20
10316;DHT22;5203;48.976;8.306;2022-12-18T11:02:54;-4.40;97.90
10316;DHT22;5203;48.976;8.306;2022-12-18T11:05:32;-4.40;98.60
10316;DHT22;5203;48.976;8.306;2022-12-18T11:08:00;-4.40;98.40
10316;DHT22;5203;48.976;8.306;2022-12-18T11:10:32;-4.40;99.00
10316;DHT22;5203;48.976;8.306;2022-12-18T11:13:22;-4.30;98.00
10316;DHT22;5203;48.976;8.306;2022-12-18T11:15:48;-4.60;99.00
10316;DHT22;5203;48.976;8.306;2022-12-18T11:18:25;-4.40;99.60
10316;DHT22;5203;48.976;8.306;2022-12-18T11:20:59;-4.30;98.60
10316;DHT22;5203;48.976;8.306;2022-12-18T11:23:26;-4.20;97.60
10316;DHT22;5203;48.976;8.306;2022-12-18T11:25:58;-4.20;97.90
10316;DHT22;5203;48.976;8.306;2022-12-18T11:28:40;-4.20;98.50
10316;DHT22;5203;48.976;8.306;2022-12-18T11:31:27;-4.40;98.90
10316;DHT22;5203;48.976;8.306;2022-12-18T11:36:22;-4.60;99.90
10316;DHT22;5203;48.976;8.306;2022-12-18T11:38:49;-4.50;99.90
10316;DHT22;5203;48.976;8.306;2022-12-18T11:43:55;-4.50;99.90
10316;DHT22;5203;48.976;8.306;2022-12-18T11:46:30;-4.30;99.90
10316;DHT22;5203;48.976;8.306;2022-12-18T11:48:58;-4.10;99.90
10316;DHT22;5203;48.976;8.306;2022-12-18T11:51:35;-4.10;99.30
10316;DHT22;5203;48.976;8.306;2022-12-18T11:54:14;-4.00;99.30
10316;DHT22;5203;48.976;8.306;2022-12-18T11:56:48;-3.90;98.90
10316;DHT22;5203;48.976;8.306;2022-12-18T12:04:25;-3.90;99.00
10316;DHT22;5203;48.976;8.306;2022-12-18T12:17:22;-3.40;95.60
10316;DHT22;5203;48.976;8.306;2022-12-18T12:20:15;-3.40;95.60
10316;DHT22;5203;48.976;8.306;2022-12-18T12:22:56;-3.40;96.00
10316;DHT22;5203;48.976;8.306;2022-12-18T12:25:43;-3.30;95.50
10316;DHT22;5203;48.976;8.306;2022-12-18T12:39:01;-3.30;96.80
10316;DHT22;5203;48.976;8.306;2022-12-18T12:41:31;-3.30;96.70
10316;DHT22;5203;48.976;8.306;2022-12-18T12:44:27;-3.30;96.00
10316;DHT22;5203;48.976;8.306;2022-12-18T12:46:59;-3.20;96.70
10316;DHT22;5203;48.976;8.306;2022-12-18T12:49:31;-3.30;96.00
10316;DHT22;5203;48.976;8.306;2022-12-18T12:52:16;-3.30;96.90
10316;DHT22;5203;48.976;8.306;2022-12-18T12:54:43;-3.20;96.30
10316;DHT22;5203;48.976;8.306;2022-12-18T12:57:45;-3.10;96.00
10316;DHT22;5203;48.976;8.306;2022-12-18T13:00:07;-3.20;95.60
10316;DHT22;5203;48.976;8.306;2022-12-18T13:07:59;-2.90;95.70
10316;DHT22;5203;48.976;8.306;2022-12-18T13:10:32;-2.80;94.30
10316;DHT22;5203;48.976;8.306;2022-12-18T13:13:03;-2.90;93.70
10316;DHT22;5203;48.976;8.306;2022-12-18T13:18:23;-2.80;94.00
10316;DHT22;5203;48.976;8.306;2022-12-18T13:21:02;-2.80;94.10
10316;DHT22;5203;48.976;8.306;2022-12-18T13:23:39;-2.70;93.90
10316;DHT22;5203;48.976;8.306;2022-12-18T13:33:47;-2.40;92.30
10316;DHT22;5203;48.976;8.306;2022-12-18T13:36:29;-2.40;91.80
10316;DHT22;5203;48.976;8.306;2022-12-18T13:41:36;-2.50;91.40
10316;DHT22;5203;48.976;8.306;2022-12-18T13:44:12;-2.50;91.30
10316;DHT22;5203;48.976;8.306;2022-12-18T13:46:46;-2.60;92.30
10316;DHT22;5203;48.976;8.306;2022-12-18T13:51:43;-2.60;93.50
10316;DHT22;5203;48.976;8.306;2022-12-18T13:54:35;-2.50;94.70
10316;DHT22;5203;48.976;8.306;2022-12-18T13:57:01;-2.60;94.80
10316;DHT22;5203;48.976;8.306;2022-12-18T13:59:39;-2.50;94.60
10316;DHT22;5203;48.976;8.306;2022-12-18T14:02:22;-2.60;94.80
10316;DHT22;5203;48.976;8.306;2022-12-18T14:04:48;-2.50;95.20
10316;DHT22;5203;48.976;8.306;2022-12-18T14:07:17;-2.50;95.30
10316;DHT22;5203;48.976;8.306;2022-12-18T14:09:47;-2.50;95.20
10316;DHT22;5203;48.976;8.306;2022-12-18T14:12:23;-2.60;95.90
10316;DHT22;5203;48.976;8.306;2022-12-18T14:15:34;-2.50;96.20
10316;DHT22;5203;48.976;8.306;2022-12-18T14:18:26;-2.50;95.60
10316;DHT22;5203;48.976;8.306;2022-12-18T14:20:56;-2.50;95.90
10316;DHT22;5203;48.976;8.306;2022-12-18T14:26:19;-2.60;96.70
10316;DHT22;5203;48.976;8.306;2022-12-18T14:28:45;-2.70;97.00
10316;DHT22;5203;48.976;8.306;2022-12-18T14:31:19;-2.70;97.10
10316;DHT22;5203;48.976;8.306;2022-12-18T14:33:45;-2.80;97.80
10316;DHT22;5203;48.976;8.306;2022-12-18T14:36:19;-2.80;98.70
10316;DHT22;5203;48.976;8.306;2022-12-18T14:38:52;-2.90;99.10
10316;DHT22;5203;48.976;8.306;2022-12-18T14:41:20;-2.80;99.00
10316;DHT22;5203;48.976;8.306;2022-12-18T14:43:51;-2.80;99.60
10316;DHT22;5203;48.976;8.306;2022-12-18T14:46:34;-2.80;98.70
10316;DHT22;5203;48.976;8.306;2022-12-18T14:52:01;-2.80;98.00
10316;DHT22;5203;48.976;8.306;2022-12-18T14:54:28;-2.90;98.50
10316;DHT22;5203;48.976;8.306;2022-12-18T14:57:06;-2.90;98.80
10316;DHT22;5203;48.976;8.306;2022-12-18T14:59:39;-2.90;99.00
10316;DHT22;5203;48.976;8.306;2022-12-18T15:04:43;-3.00;98.60
10316;DHT22;5203;48.976;8.306;2022-12-18T15:07:19;-2.90;98.60
10316;DHT22;5203;48.976;8.306;2022-12-18T15:12:44;-3.00;98.00
10316;DHT22;5203;48.976;8.306;2022-12-18T15:18:19;-2.90;98.00
10316;DHT22;5203;48.976;8.306;2022-12-18T15:20:56;-2.90;97.40
10316;DHT22;5203;48.976;8.306;2022-12-18T15:26:11;-3.30;98.60
10316;DHT22;5203;48.976;8.306;2022-12-18T15:28:59;-3.30;99.70
10316;DHT22;5203;48.976;8.306;2022-12-18T15:31:32;-3.20;98.80
10316;DHT22;5203;48.976;8.306;2022-12-18T15:36:29;-3.30;99.10
10316;DHT22;5203;48.976;8.306;2022-12-18T15:38:56;-3.50;99.90
10316;DHT22;5203;48.976;8.306;2022-12-18T15:41:23;-3.60;99.90
10316;DHT22;5203;48.976;8.306;2022-12-18T15:43:50;-3.50;99.70
10316;DHT22;5203;48.976;8.306;2022-12-18T15:46:22;-3.40;99.50
10316;DHT22;5203;48.976;8.306;2022-12-18T15:48:52;-3.30;99.10
10316;DHT22;5203;48.976;8.306;2022-12-18T15:51:31;-3.10;98.00
10316;DHT22;5203;48.976;8.306;2022-12-18T15:54:00;-3.10;97.60
10316;DHT22;5203;48.976;8.306;2022-12-18T15:56:26;-3.20;97.00
10316;DHT22;5203;48.976;8.306;2022-12-18T15:59:16;-3.20;97.10
10316;DHT22;5203;48.976;8.306;2022-12-18T16:01:44;-3.10;97.00
10316;DHT22;5203;48.976;8.306;2022-12-18T16:04:15;-3.20;96.40
10316;DHT22;5203;48.976;8.306;2022-12-18T16:06:42;-3.30;97.80
10316;DHT22;5203;48.976;8.306;2022-12-18T16:09:08;-3.30;98.20
10316;DHT22;5203;48.976;8.306;2022-12-18T16:11:36;-3.30;98.00
10316;DHT22;5203;48.976;8.306;2022-12-18T16:16:37;-3.20;97.70
10316;DHT22;5203;48.976;8.306;2022-12-18T16:19:03;-3.20;98.00
10316;DHT22;5203;48.976;8.306;2022-12-18T16:21:29;-3.30;97.20
10316;DHT22;5203;48.976;8.306;2022-12-18T16:23:55;-3.50;98.40
10316;DHT22;5203;48.976;8.306;2022-12-18T16:26:20;-3.50;99.10
10316;DHT22;5203;48.976;8.306;2022-12-18T16:28:46;-3.40;99.00
10316;DHT22;5203;48.976;8.306;2022-12-18T16:31:12;-3.40;98.60
10316;DHT22;5203;48.976;8.306;2022-12-18T16:33:37;-3.40;99.00
10316;DHT22;5203;48.976;8.306;2022-12-18T16:36:03;-3.40;98.50
10316;DHT22;5203;48.976;8.306;2022-12-18T16:38:29;-3.40;98.40
10316;DHT22;5203;48.976;8.306;2022-12-18T16:40:54;-3.40;98.40
10316;DHT22;5203;48.976;8.306;2022-12-18T16:43:38;-3.40;98.40
10316;DHT22;5203;48.976;8.306;2022-12-18T16:46:04;-3.30;97.90
10316;DHT22;5203;48.976;8.306;2022-12-18T16:48:30;-3.30;97.80
10316;DHT22;5203;48.976;8.306;2022-12-18T16:51:03;-3.30;97.60
10316;DHT22;5203;48.976;8.306;2022-12-18T16:53:31;-3.30;97.50
10316;DHT22;5203;48.976;8.306;2022-12-18T16:55:57;-3.20;96.70
10316;DHT22;5203;48.976;8.306;2022-12-18T16:58:22;-3.20;96.60
10316;DHT22;5203;48.976;8.306;2022-12-18T17:00:48;-3.40;96.80
10316;DHT22;5203;48.976;8.306;2022-12-18T17:03:14;-3.30;97.40
10316;DHT22;5203;48.976;8.306;2022-12-18T17:05:39;-3.40;97.80
10316;DHT22;5203;48.976;8.306;2022-12-18T17:08:05;-3.40;97.30
10316;DHT22;5203;48.976;8.306;2022-12-18T17:10:34;-3.30;97.10
10316;DHT22;5203;48.976;8.306;2022-12-18T17:12:59;-3.30;97.00
10316;DHT22;5203;48.976;8.306;2022-12-18T17:16:03;-3.30;97.30
10316;DHT22;5203;48.976;8.306;2022-12-18T18:17:10;-3.30;97.80
10316;DHT22;5203;48.976;8.306;2022-12-18T18:19:36;-3.30;97.00
10316;DHT22;5203;48.976;8.306;2022-12-18T18:22:01;-3.40;97.70
10316;DHT22;5203;48.976;8.306;2022-12-18T18:24:27;-3.30;97.60
10316;DHT22;5203;48.976;8.306;2022-12-18T18:26:54;-3.20;97.30
10316;DHT22;5203;48.976;8.306;2022-12-18T18:29:22;-3.40;97.30
10316;DHT22;5203;48.976;8.306;2022-12-18T18:31:48;-3.30;98.40
10316;DHT22;5203;48.976;8.306;2022-12-18T18:34:22;-3.40;97.60
10316;DHT22;5203;48.976;8.306;2022-12-18T18:36:48;-3.40;97.80
10316;DHT22;5203;48.976;8.306;2022-12-18T18:39:14;-3.30;98.20
10316;DHT22;5203;48.976;8.306;2022-12-18T18:41:40;-3.20;97.20
10316;DHT22;5203;48.976;8.306;2022-12-18T18:44:05;-3.20;97.20
10316;DHT22;5203;48.976;8.306;2022-12-18T18:46:32;-3.10;96.60
10316;DHT22;5203;48.976;8.306;2022-12-18T18:48:58;-3.10;97.20
10316;DHT22;5203;48.976;8.306;2022-12-18T18:51:23;-3.10;96.60
10316;DHT22;5203;48.976;8.306;2022-12-18T18:53:51;-3.00;96.20
10316;DHT22;5203;48.976;8.306;2022-12-18T18:56:21;-3.20;97.20
10316;DHT22;5203;48.976;8.306;2022-12-18T18:58:47;-3.10;96.80
10316;DHT22;5203;48.976;8.306;2022-12-18T19:01:15;-3.10;97.50